Time;durP1;ratioP1;P1;durP2;ratioP2;P2;SDS_P1;SDS_P2;PMS_P1;PMS_P2;Temp;Humidity;BMP_temperature;BMP_pressure;BME280_temperature;BME280_humidity;BME280_pressure;Samples;Min_cycle;Max_cycle;Signal;HPM_P1;HPM_P2
2023/01/22 00:01:44;;;;;;;34.15;20.08;;;;;;;3.07;57.92;103207.19;6181673;23;20387;-67
2023/01/22 00:04:11;;;;;;;33.03;18.83;;;;;;;3.04;58.05;103206.31;6181756;23;20017;-66
2023/01/22 00:06:37;;;;;;;36.42;20.63;;;;;;;3.02;58.07;103208.09;6181769;23;20020;-67
2023/01/22 00:09:04;;;;;;;38.78;21.70;;;;;;;2.98;58.06;103207.22;6181817;22;20063;-68
2023/01/22 00:11:31;;;;;;;32.78;19.15;;;;;;;2.97;58.06;103212.50;6181546;23;20423;-66
2023/01/22 00:13:57;;;;;;;32.20;19.80;;;;;;;2.94;57.97;103209.84;6181699;23;20017;-67
2023/01/22 00:16:24;;;;;;;33.38;19.92;;;;;;;2.91;57.97;103208.09;6181321;23;20017;-67
2023/01/22 00:18:50;;;;;;;32.03;19.23;;;;;;;2.90;58.26;103208.97;6181597;23;20043;-67
2023/01/22 00:21:17;;;;;;;30.25;18.85;;;;;;;2.90;58.07;103208.09;6181566;23;20024;-67
2023/01/22 00:23:43;;;;;;;31.40;18.83;;;;;;;2.88;58.13;103206.31;6181712;23;20017;-68
2023/01/22 00:26:14;;;;;;;33.55;19.30;;;;;;;2.88;58.12;103213.41;6181740;22;20021;-67
2023/01/22 00:28:46;;;;;;;33.78;20.35;;;;;;;2.87;58.18;103208.97;6181613;23;20389;-68
2023/01/22 00:31:14;;;;;;;36.90;19.52;;;;;;;2.86;58.17;103207.22;6155136;23;20478;-67
2023/01/22 00:33:41;;;;;;;33.65;19.08;;;;;;;2.85;58.17;103210.75;6181310;23;20443;-67
2023/01/22 00:36:12;;;;;;;31.95;19.55;;;;;;;2.84;58.18;103208.97;6181540;22;20021;-67
2023/01/22 00:38:39;;;;;;;28.75;18.35;;;;;;;2.82;58.18;103206.34;6181588;23;20020;-68
2023/01/22 00:41:07;;;;;;;29.50;18.52;;;;;;;2.79;57.89;103211.66;6181580;22;20013;-68
2023/01/22 00:43:37;;;;;;;32.53;19.60;;;;;;;2.78;58.17;103206.34;6181189;23;20063;-67
2023/01/22 00:46:05;;;;;;;31.52;19.10;;;;;;;2.77;58.17;103201.91;6155120;23;20013;-67
2023/01/22 00:48:32;;;;;;;35.08;21.05;;;;;;;2.75;58.27;103196.63;6181737;23;20045;-67
2023/01/22 00:50:58;;;;;;;33.33;19.05;;;;;;;2.75;58.35;103193.06;6155271;22;20020;-67
2023/01/22 00:53:25;;;;;;;33.05;20.13;;;;;;;2.73;58.23;103193.06;6154778;23;20024;-67
2023/01/22 00:55:54;;;;;;;37.17;20.85;;;;;;;2.73;58.37;103193.06;6155004;23;20108;-66
2023/01/22 00:58:20;;;;;;;37.50;20.98;;;;;;;2.72;58.25;103195.72;6181456;23;20025;-67
2023/01/22 01:00:48;;;;;;;31.27;19.73;;;;;;;2.72;58.27;103185.13;6154999;23;20090;-66
2023/01/22 01:03:31;;;;;;;35.47;21.35;;;;;;;2.70;58.21;103177.16;6181230;23;20013;-67
2023/01/22 01:06:12;;;;;;;32.83;20.02;;;;;;;2.69;58.33;103183.34;6181547;23;20021;-66
2023/01/22 01:08:41;;;;;;;33.97;20.52;;;;;;;2.69;58.21;103183.34;6155275;22;20451;-67
2023/01/22 01:11:13;;;;;;;33.97;19.65;;;;;;;2.68;58.43;103186.00;6181229;23;20017;-68
2023/01/22 01:13:41;;;;;;;32.45;20.05;;;;;;;2.68;58.42;103186.00;6181205;23;20100;-68
2023/01/22 01:16:20;;;;;;;33.28;20.00;;;;;;;2.66;58.42;103174.50;6181139;23;20036;-67
2023/01/22 01:18:47;;;;;;;31.92;19.73;;;;;;;2.65;58.40;103176.28;6154884;23;20051;-67
2023/01/22 01:21:14;;;;;;;32.72;19.88;;;;;;;2.64;58.55;103174.50;6154688;22;20352;-67
2023/01/22 01:23:41;;;;;;;33.78;20.02;;;;;;;2.63;58.54;103175.41;6181067;23;20028;-67
2023/01/22 01:26:11;;;;;;;34.90;20.27;;;;;;;2.62;58.60;103183.38;6155023;23;20039;-68
2023/01/22 01:28:39;;;;;;;31.30;19.77;;;;;;;2.61;58.61;103181.59;6181590;22;20017;-67
2023/01/22 01:31:09;;;;;;;35.67;21.33;;;;;;;2.62;58.60;103180.72;6156032;23;20108;-67
2023/01/22 01:33:36;;;;;;;32.70;20.67;;;;;;;2.62;58.54;103186.00;6182394;23;20017;-66
2023/01/22 01:36:06;;;;;;;32.63;18.90;;;;;;;2.61;58.27;103179.81;6156240;22;20028;-67
2023/01/22 01:38:32;;;;;;;31.17;19.40;;;;;;;2.62;58.65;103184.25;6182360;23;20017;-67
2023/01/22 01:40:59;;;;;;;30.77;18.33;;;;;;;2.61;58.52;103177.19;6182367;23;20059;-68
2023/01/22 01:43:26;;;;;;;32.67;19.75;;;;;;;2.58;58.66;103177.19;6156180;23;20028;-68
2023/01/22 01:45:55;;;;;;;37.38;20.50;;;;;;;2.56;58.53;103165.69;6182224;23;20023;-68
2023/01/22 01:48:43;;;;;;;34.90;19.83;;;;;;;2.52;58.46;103164.81;6182442;23;20021;-67
2023/01/22 01:51:28;;;;;;;33.97;19.30;;;;;;;2.48;58.60;103155.09;6182262;23;20010;-67
2023/01/22 01:53:56;;;;;;;32.25;18.00;;;;;;;2.47;58.53;103150.66;6182379;23;20040;-67
2023/01/22 01:56:27;;;;;;;28.13;18.13;;;;;;;2.47;58.40;103150.66;6182286;23;20021;-67
2023/01/22 01:59:01;;;;;;;32.67;20.20;;;;;;;2.47;58.56;103133.88;6156018;22;20013;-67
2023/01/22 02:01:31;;;;;;;34.47;20.13;;;;;;;2.49;58.63;103140.94;6155914;23;20013;-67
2023/01/22 02:03:59;;;;;;;32.42;20.10;;;;;;;2.52;58.76;103148.88;6182293;23;20017;-67
2023/01/22 02:06:26;;;;;;;33.58;20.38;;;;;;;2.55;58.73;103145.34;6182401;23;20024;-67
2023/01/22 02:08:54;;;;;;;38.28;20.58;;;;;;;2.59;58.97;103140.91;6156016;23;20028;-67
2023/01/22 02:11:21;;;;;;;31.63;19.25;;;;;;;2.63;58.85;103140.03;6182284;23;20041;-67
2023/01/22 02:13:54;;;;;;;31.67;19.63;;;;;;;2.69;59.00;103134.72;6181968;23;20017;-67
2023/01/22 02:16:21;;;;;;;33.13;20.45;;;;;;;2.75;58.99;103145.31;6182661;22;20426;-67
2023/01/22 02:18:48;;;;;;;32.85;20.20;;;;;;;2.81;59.16;103132.03;6182153;23;20096;-67
2023/01/22 02:21:43;;;;;;;34.95;19.50;;;;;;;2.87;59.19;103132.03;6155960;22;20040;-67
2023/01/22 02:24:13;;;;;;;33.72;19.02;;;;;;;2.96;58.95;103136.41;6182314;22;20017;-68
2023/01/22 02:26:41;;;;;;;33.60;18.98;;;;;;;3.01;59.21;103139.97;6156086;22;20021;-68
2023/01/22 02:29:11;;;;;;;34.70;20.25;;;;;;;3.06;59.27;103140.84;6155742;23;20022;-68
2023/01/22 02:31:39;;;;;;;36.10;19.45;;;;;;;3.10;59.24;103143.47;6181922;23;20063;-67
2023/01/22 02:34:08;;;;;;;32.78;19.63;;;;;;;3.14;59.28;103137.28;6155728;23;20456;-68
2023/01/22 02:36:36;;;;;;;32.83;19.55;;;;;;;3.21;59.30;103140.78;6182190;23;20017;-68
2023/01/22 02:39:03;;;;;;;31.50;18.85;;;;;;;3.26;59.29;103143.41;6155711;23;20347;-67
2023/01/22 02:41:30;;;;;;;34.53;20.15;;;;;;;3.29;59.22;103146.94;6155706;22;20047;-67
2023/01/22 02:43:58;;;;;;;30.75;19.33;;;;;;;3.31;59.32;103147.81;6155607;23;20017;-67
2023/01/22 02:46:25;;;;;;;28.85;18.67;;;;;;;3.32;59.23;103144.28;6155730;23;20025;-67
2023/01/22 02:48:51;;;;;;;28.27;19.13;;;;;;;3.33;59.17;103145.16;6155590;23;20344;-67
2023/01/22 02:51:18;;;;;;;29.52;19.13;;;;;;;3.34;59.16;103147.81;6155576;23;20021;-67
2023/01/22 02:53:47;;;;;;;29.98;19.42;;;;;;;3.35;59.14;103148.69;6155498;23;20096;-67
2023/01/22 02:56:14;;;;;;;30.10;19.13;;;;;;;3.36;59.29;103153.13;6156036;22;20025;-67
2023/01/22 02:58:40;;;;;;;29.20;18.92;;;;;;;3.35;59.06;103144.25;6155757;23;20108;-67
2023/01/22 03:01:17;;;;;;;29.67;18.55;;;;;;;3.35;59.20;103146.91;6155617;22;20047;-67
2023/01/22 03:04:00;;;;;;;28.20;18.48;;;;;;;3.37;59.13;103157.53;6155746;23;20021;-67
2023/01/22 03:06:28;;;;;;;28.63;18.30;;;;;;;3.37;59.38;103152.22;6182456;23;20013;-67
2023/01/22 03:08:59;;;;;;;28.08;18.40;;;;;;;3.35;59.19;103154.88;6155639;23;20414;-67
2023/01/22 03:11:28;;;;;;;28.90;17.42;;;;;;;3.36;58.96;103147.81;6155649;23;20021;-68
2023/01/22 03:22:18;;;;;;;25.27;16.33;;;;;;;3.36;59.00;103131.88;6155295;23;20035;-67
2023/01/22 03:24:52;;;;;;;28.08;18.50;;;;;;;3.35;58.90;103132.75;6181954;23;20074;-67
2023/01/22 03:27:24;;;;;;;27.10;16.42;;;;;;;3.34;58.94;103128.34;6155635;23;20017;-67
2023/01/22 03:29:51;;;;;;;28.88;18.35;;;;;;;3.33;59.00;103123.91;6155460;23;20024;-67
2023/01/22 03:32:19;;;;;;;30.15;18.27;;;;;;;3.33;59.01;103122.16;6155134;23;20019;-67
2023/01/22 03:34:46;;;;;;;29.58;18.52;;;;;;;3.33;58.99;103124.81;6155588;23;20402;-68
2023/01/22 03:37:14;;;;;;;28.40;17.35;;;;;;;3.34;59.12;103115.06;6155378;23;20094;-68
2023/01/22 03:39:43;;;;;;;28.50;18.33;;;;;;;3.35;59.08;103120.38;6155422;22;20021;-67
2023/01/22 03:42:16;;;;;;;26.95;17.27;;;;;;;3.36;58.97;103108.84;6155825;23;20068;-67
2023/01/22 03:44:43;;;;;;;28.48;17.85;;;;;;;3.35;59.00;103107.09;6155444;23;20021;-68
2023/01/22 03:47:10;;;;;;;30.23;18.10;;;;;;;3.34;59.04;103107.09;6181880;23;20013;-66
2023/01/22 03:49:37;;;;;;;29.63;18.25;;;;;;;3.33;59.04;103105.31;6155473;23;20028;-67
2023/01/22 03:52:04;;;;;;;27.35;18.52;;;;;;;3.32;59.06;103099.13;6154834;23;20046;-68
2023/01/22 03:54:31;;;;;;;28.05;17.95;;;;;;;3.31;58.91;103104.44;6181722;23;20032;-68
2023/01/22 03:57:00;;;;;;;29.20;17.95;;;;;;;3.30;58.95;103103.56;6155482;22;20394;-67
2023/01/22 03:59:30;;;;;;;29.75;18.45;;;;;;;3.31;59.04;103104.44;6155699;23;20049;-67
2023/01/22 04:01:57;;;;;;;30.13;17.83;;;;;;;3.29;59.03;103107.13;6155197;23;20017;-68
2023/01/22 04:04:24;;;;;;;28.95;18.23;;;;;;;3.28;58.96;103105.34;6155585;23;20100;-67
2023/01/22 04:06:51;;;;;;;31.67;18.42;;;;;;;3.27;59.03;103108.91;6155344;23;20405;-67
2023/01/22 04:09:17;;;;;;;27.33;17.38;;;;;;;3.26;58.79;103114.22;6155280;23;20048;-67
2023/01/22 04:11:46;;;;;;;29.10;17.92;;;;;;;3.24;58.88;103110.69;6155360;22;20021;-67
2023/01/22 04:14:14;;;;;;;29.23;18.17;;;;;;;3.24;59.00;103106.25;6155496;23;20013;-67
2023/01/22 04:16:52;;;;;;;26.15;16.58;;;;;;;3.23;58.99;103108.91;6158084;23;20024;-66
2023/01/22 04:19:28;;;;;;;28.70;16.30;;;;;;;3.23;58.94;103114.22;6187260;23;20021;-66
2023/01/22 04:22:15;;;;;;;29.58;16.98;;;;;;;3.25;59.05;103107.13;6120976;23;20108;-67
2023/01/22 04:24:43;;;;;;;28.90;17.20;;;;;;;3.28;59.16;103102.69;6155636;22;20047;-67
2023/01/22 04:27:10;;;;;;;27.63;17.17;;;;;;;3.29;58.98;103103.56;6155546;23;20025;-67
2023/01/22 04:29:36;;;;;;;26.40;16.67;;;;;;;3.32;59.20;103101.78;6181604;23;20017;-67
2023/01/22 04:32:06;;;;;;;23.75;16.20;;;;;;;3.35;59.28;103099.13;6156070;22;20350;-68
2023/01/22 04:34:58;;;;;;;23.92;15.18;;;;;;;3.39;59.25;103103.53;6175763;23;20444;-67
2023/01/22 04:37:35;;;;;;;24.67;16.40;;;;;;;3.44;59.27;103100.84;6155285;23;20063;-69
2023/01/22 04:40:04;;;;;;;27.38;17.42;;;;;;;3.47;59.38;103101.72;6155158;23;20017;-68
2023/01/22 04:42:33;;;;;;;25.38;16.92;;;;;;;3.50;59.46;103103.47;6155648;23;20103;-66
2023/01/22 04:45:00;;;;;;;27.60;17.23;;;;;;;3.55;59.48;103101.66;6155417;23;20017;-68
2023/01/22 04:47:30;;;;;;;26.63;16.75;;;;;;;3.58;59.62;103096.31;6155199;22;20023;-67
2023/01/22 04:49:56;;;;;;;25.95;17.08;;;;;;;3.59;59.45;103097.22;6181393;23;20024;-67
2023/01/22 04:52:23;;;;;;;28.60;17.33;;;;;;;3.63;59.54;103106.94;6155091;23;20017;-68
2023/01/22 04:54:50;;;;;;;25.02;15.65;;;;;;;3.66;59.57;103097.16;6155044;23;20041;-67
2023/01/22 04:57:17;;;;;;;26.77;16.52;;;;;;;3.68;59.48;103095.38;6155212;23;20024;-67
2023/01/22 04:59:45;;;;;;;27.15;16.00;;;;;;;3.72;59.46;103091.84;6155093;23;20044;-67
2023/01/22 05:02:12;;;;;;;23.92;16.13;;;;;;;3.75;59.46;103090.94;6154620;23;20021;-67
2023/01/22 05:04:40;;;;;;;23.80;16.25;;;;;;;3.78;59.55;103090.91;6154452;23;20017;-68
2023/01/22 05:07:06;;;;;;;27.85;16.35;;;;;;;3.79;59.59;103098.00;6181385;23;20027;-68
2023/01/22 05:09:33;;;;;;;28.48;16.77;;;;;;;3.80;59.53;103097.97;6155001;23;20095;-67
2023/01/22 05:12:00;;;;;;;26.15;16.92;;;;;;;3.81;59.47;103091.78;6154866;23;20050;-68
2023/01/22 05:14:32;;;;;;;22.05;15.70;;;;;;;3.82;59.47;103093.53;6155149;23;20017;-68
2023/01/22 05:17:00;;;;;;;22.25;16.20;;;;;;;3.84;59.48;103098.84;6154771;23;20013;-68
2023/01/22 05:19:26;;;;;;;25.98;16.73;;;;;;;3.86;59.47;103099.72;6181373;23;20368;-68
2023/01/22 05:21:53;;;;;;;25.45;15.90;;;;;;;3.89;59.55;103096.16;6154650;23;20048;-68
2023/01/22 05:24:20;;;;;;;22.77;15.73;;;;;;;3.90;59.47;103093.47;6154864;23;20086;-68
2023/01/22 05:26:47;;;;;;;22.98;15.25;;;;;;;3.93;59.46;103108.53;6154897;23;20017;-68
2023/01/22 05:29:24;;;;;;;20.65;14.75;;;;;;;3.94;59.37;103108.50;6154681;23;20339;-68
2023/01/22 05:31:57;;;;;;;19.38;14.15;;;;;;;3.95;59.40;103112.06;6181534;23;20021;-68
2023/01/22 05:34:39;;;;;;;21.08;14.50;;;;;;;3.96;59.24;103109.38;6154926;23;20049;-67
2023/01/22 05:37:08;;;;;;;21.48;14.82;;;;;;;3.96;59.45;103109.38;6155028;23;20525;-68
2023/01/22 05:39:35;;;;;;;21.70;14.85;;;;;;;3.97;59.43;103113.81;6154543;23;20017;-68
2023/01/22 05:42:04;;;;;;;20.63;14.15;;;;;;;3.96;59.36;103120.00;6154558;23;20013;-68
2023/01/22 05:44:31;;;;;;;19.88;14.32;;;;;;;3.95;59.13;103115.59;6154585;23;20024;-68
2023/01/22 05:47:00;;;;;;;20.50;13.95;;;;;;;3.97;59.36;103123.56;6154862;22;20108;-68
2023/01/22 05:49:45;;;;;;;19.23;13.20;;;;;;;3.97;59.27;103121.78;6180938;23;20526;-68
2023/01/22 05:52:13;;;;;;;18.77;13.57;;;;;;;3.99;59.37;103113.78;6180776;23;20105;-68
2023/01/22 05:54:40;;;;;;;23.08;13.48;;;;;;;4.01;59.33;103114.66;6154526;23;20021;-68
2023/01/22 05:57:07;;;;;;;18.55;13.55;;;;;;;4.02;59.22;103111.13;6154293;23;20380;-68
2023/01/22 05:59:36;;;;;;;18.88;13.13;;;;;;;4.03;59.29;103115.53;6154612;23;20017;-68
2023/01/22 06:02:04;;;;;;;20.35;13.65;;;;;;;4.03;59.35;103116.41;6180575;23;20024;-68
2023/01/22 06:04:34;;;;;;;21.60;14.30;;;;;;;4.03;59.31;103119.06;6154681;23;20017;-68
2023/01/22 06:07:07;;;;;;;22.02;14.35;;;;;;;4.05;59.32;103121.72;6154900;23;20023;-69
2023/01/22 06:09:34;;;;;;;20.27;14.00;;;;;;;4.07;59.29;103119.94;6154503;23;20329;-69
2023/01/22 06:12:03;;;;;;;19.95;13.50;;;;;;;4.06;59.29;103110.19;6154873;23;20025;-69
2023/01/22 06:14:30;;;;;;;21.35;14.20;;;;;;;4.06;59.31;103119.06;6181686;22;20070;-68
2023/01/22 06:16:58;;;;;;;19.75;14.38;;;;;;;4.07;59.27;103120.81;6155865;23;20022;-68
2023/01/22 06:19:33;;;;;;;20.73;13.63;;;;;;;4.08;59.29;103122.59;6182328;23;20448;-69
2023/01/22 06:21:59;;;;;;;20.42;14.15;;;;;;;4.08;59.27;103117.25;6155798;23;20021;-70
2023/01/22 06:24:39;;;;;;;20.63;14.23;;;;;;;4.09;59.23;103120.81;6156161;23;20013;-69
2023/01/22 06:27:07;;;;;;;20.00;14.23;;;;;;;4.10;59.27;103110.16;6155827;22;20021;-69
2023/01/22 06:29:39;;;;;;;20.75;14.82;;;;;;;4.12;59.36;103121.66;6155992;23;20020;-69
2023/01/22 06:32:06;;;;;;;20.10;14.45;;;;;;;4.14;59.32;103119.00;6155559;23;20054;-69
2023/01/22 06:34:33;;;;;;;22.70;14.90;;;;;;;4.15;59.36;103120.75;6156127;22;20032;-68
2023/01/22 06:37:01;;;;;;;21.58;14.93;;;;;;;4.15;59.03;103118.09;6131734;23;20345;-68
2023/01/22 06:39:31;;;;;;;23.95;15.27;;;;;;;4.16;59.30;103114.53;6155842;23;20049;-68
2023/01/22 06:42:08;;;;;;;21.98;14.88;;;;;;;4.18;59.22;103117.19;6155968;23;20021;-68
2023/01/22 06:44:34;;;;;;;19.85;14.93;;;;;;;4.17;59.23;103111.00;6182506;23;20020;-68
2023/01/22 06:47:01;;;;;;;20.42;14.63;;;;;;;4.18;59.19;103112.75;6155579;23;20023;-68
2023/01/22 06:49:29;;;;;;;23.30;15.15;;;;;;;4.20;59.41;103115.41;6155958;22;20013;-68
2023/01/22 06:51:56;;;;;;;21.27;15.32;;;;;;;4.21;59.36;103125.13;6181932;23;20017;-68
2023/01/22 06:54:22;;;;;;;24.77;15.88;;;;;;;4.23;59.70;103126.00;6131421;23;20063;-69
2023/01/22 06:56:49;;;;;;;20.98;14.55;;;;;;;4.24;59.24;103128.66;6155431;23;20025;-68
2023/01/22 06:59:19;;;;;;;23.95;16.23;;;;;;;4.25;59.30;103125.09;6155821;23;20017;-68
2023/01/22 07:01:45;;;;;;;24.08;15.30;;;;;;;4.27;59.33;103131.28;6182240;23;20096;-69
2023/01/22 07:04:12;;;;;;;24.25;16.00;;;;;;;4.27;59.23;103128.63;6182063;23;20059;-68
2023/01/22 07:06:38;;;;;;;23.17;15.68;;;;;;;4.25;59.17;103125.09;6181929;23;20021;-68
2023/01/22 07:09:05;;;;;;;24.45;15.88;;;;;;;4.26;59.33;103126.88;6181989;23;20023;-68
2023/01/22 07:11:32;;;;;;;21.08;15.75;;;;;;;4.27;59.29;103125.97;6182052;23;20024;-68
2023/01/22 07:13:58;;;;;;;22.67;15.75;;;;;;;4.30;59.35;103127.72;6181889;23;20444;-68
2023/01/22 07:16:25;;;;;;;23.75;16.50;;;;;;;4.29;59.28;103132.16;6182022;23;20021;-68
2023/01/22 07:18:51;;;;;;;23.80;16.83;;;;;;;4.29;59.31;103132.16;6181871;23;20021;-68
2023/01/22 07:21:18;;;;;;;22.73;16.17;;;;;;;4.32;59.39;103144.56;6182025;23;20520;-68
2023/01/22 07:23:45;;;;;;;24.42;16.67;;;;;;;4.32;59.25;103142.78;6181824;23;20024;-68
2023/01/22 07:26:11;;;;;;;24.55;17.00;;;;;;;4.32;59.36;103142.78;6181171;23;20021;-68
2023/01/22 07:28:38;;;;;;;24.67;16.92;;;;;;;4.35;59.40;103145.41;6181911;23;20419;-68
2023/01/22 07:31:09;;;;;;;22.92;15.80;;;;;;;4.35;59.47;103141.88;6181881;23;20096;-67
2023/01/22 07:33:35;;;;;;;22.27;16.75;;;;;;;4.35;59.30;103136.53;6182011;22;20097;-68
2023/01/22 07:36:02;;;;;;;25.13;16.58;;;;;;;4.35;59.32;103142.75;6155335;23;20017;-68
2023/01/22 07:38:29;;;;;;;22.33;15.98;;;;;;;4.34;59.23;103138.31;6155433;23;20448;-68
2023/01/22 07:41:04;;;;;;;21.38;15.82;;;;;;;4.37;59.30;103137.41;6155659;23;20432;-68
2023/01/22 07:43:48;;;;;;;21.38;16.25;;;;;;;4.39;59.35;103143.59;6181964;22;20017;-68
2023/01/22 07:46:15;;;;;;;22.52;15.75;;;;;;;4.39;59.33;103149.81;6181589;23;20017;-68
2023/01/22 07:48:41;;;;;;;24.67;15.60;;;;;;;4.40;59.19;103137.38;6181995;22;20027;-68
2023/01/22 07:51:11;;;;;;;22.42;15.80;;;;;;;4.41;59.23;103145.34;6181941;23;20443;-68
2023/01/22 07:53:38;;;;;;;24.13;15.98;;;;;;;4.41;59.27;103149.78;6181521;23;20396;-68
2023/01/22 07:56:05;;;;;;;21.05;14.70;;;;;;;4.42;59.18;103143.56;6181630;23;20017;-69
2023/01/22 07:58:32;;;;;;;19.50;15.07;;;;;;;4.42;59.24;103139.13;6181632;23;20028;-68
2023/01/22 08:00:58;;;;;;;20.05;14.95;;;;;;;4.42;59.28;103141.78;6181752;23;20066;-67
2023/01/22 08:03:25;;;;;;;21.05;15.25;;;;;;;4.43;59.38;103153.31;6181643;23;20017;-67
2023/01/22 08:05:52;;;;;;;22.67;15.70;;;;;;;4.43;59.29;103153.31;6182158;22;20021;-68
2023/01/22 08:08:19;;;;;;;20.52;15.27;;;;;;;4.44;59.24;103158.63;6181691;23;20386;-67
2023/01/22 08:10:46;;;;;;;20.42;15.90;;;;;;;4.44;59.38;103155.97;6181693;23;20432;-67
2023/01/22 08:13:13;;;;;;;21.13;15.63;;;;;;;4.45;59.48;103168.38;6181482;23;20519;-68
2023/01/22 08:15:44;;;;;;;20.45;15.60;;;;;;;4.49;59.25;103165.72;6181814;22;20313;-68
2023/01/22 08:18:11;;;;;;;21.60;15.32;;;;;;;4.50;59.34;103167.50;6155399;22;20017;-67
2023/01/22 08:20:37;;;;;;;20.13;14.63;;;;;;;4.50;59.31;103173.69;6130897;23;20017;-68
2023/01/22 08:23:04;;;;;;;21.70;14.35;;;;;;;4.52;59.17;103171.91;6181930;23;20055;-68
2023/01/22 08:25:30;;;;;;;21.67;15.23;;;;;;;4.53;59.37;103173.66;6181659;22;20091;-68
2023/01/22 08:28:01;;;;;;;21.48;14.30;;;;;;;4.54;59.27;103170.09;6181502;23;20456;-67
2023/01/22 08:30:28;;;;;;;21.10;14.63;;;;;;;4.54;59.46;103166.56;6181577;22;20321;-68
2023/01/22 08:32:54;;;;;;;20.02;14.55;;;;;;;4.56;59.21;103162.09;6181486;23;20096;-68
2023/01/22 08:35:21;;;;;;;22.25;14.80;;;;;;;4.57;59.36;103159.44;6181480;23;20017;-68
2023/01/22 08:37:50;;;;;;;20.15;13.60;;;;;;;4.60;59.33;103171.81;6181240;23;20047;-68
2023/01/22 08:40:17;;;;;;;20.13;14.63;;;;;;;4.62;59.45;103168.25;6179435;22;20515;-68
2023/01/22 08:42:52;;;;;;;19.17;14.23;;;;;;;4.65;59.26;103168.22;6181061;23;20028;-68
2023/01/22 08:45:19;;;;;;;18.10;13.40;;;;;;;4.66;59.44;103169.09;6155023;23;20096;-68
2023/01/22 08:47:46;;;;;;;19.40;13.32;;;;;;;4.67;59.44;103162.88;6181307;23;20017;-68
2023/01/22 08:50:13;;;;;;;17.48;12.18;;;;;;;4.66;59.35;103164.66;6181118;23;20351;-67
2023/01/22 08:52:40;;;;;;;17.23;13.38;;;;;;;4.69;59.42;103161.09;6180238;22;20493;-67
2023/01/22 08:55:08;;;;;;;19.52;13.48;;;;;;;4.71;59.43;103167.28;6181141;23;20021;-65
2023/01/22 08:57:36;;;;;;;17.38;13.52;;;;;;;4.70;59.20;103163.75;6180650;22;20021;-68
2023/01/22 09:00:04;;;;;;;17.05;11.95;;;;;;;4.71;59.33;103168.16;6181073;23;20017;-68
2023/01/22 09:02:31;;;;;;;17.35;12.45;;;;;;;4.73;59.33;103173.47;6181078;23;20345;-67
2023/01/22 09:04:57;;;;;;;17.63;13.02;;;;;;;4.75;59.32;103169.03;6181392;23;20017;-68
2023/01/22 09:07:24;;;;;;;15.48;11.80;;;;;;;4.76;59.47;103165.47;6181072;23;20017;-67
2023/01/22 09:09:51;;;;;;;16.63;12.27;;;;;;;4.78;59.33;103169.00;6178787;23;20023;-68
2023/01/22 09:12:17;;;;;;;17.92;12.07;;;;;;;4.80;59.31;103172.53;6178690;23;20023;-68
2023/01/22 09:14:44;;;;;;;17.40;12.13;;;;;;;4.81;59.37;103168.06;6179181;23;20028;-69
2023/01/22 09:17:10;;;;;;;16.00;12.30;;;;;;;4.81;59.25;103179.59;6178947;23;20389;-68
2023/01/22 09:19:37;;;;;;;16.40;11.93;;;;;;;4.85;59.24;103175.13;6178306;23;20025;-67
2023/01/22 09:22:05;;;;;;;15.73;11.68;;;;;;;4.86;59.24;103176.91;6178509;23;20024;-68
2023/01/22 09:24:32;;;;;;;16.13;11.45;;;;;;;4.87;59.22;103176.00;6180256;23;20071;-67
2023/01/22 09:26:59;;;;;;;17.77;12.23;;;;;;;4.89;59.42;103177.75;6180722;22;20017;-68
2023/01/22 09:29:25;;;;;;;16.30;12.40;;;;;;;4.91;59.34;103175.06;6180700;23;20459;-67
2023/01/22 09:31:52;;;;;;;16.42;12.90;;;;;;;4.92;59.31;103166.19;6180785;23;20459;-68
2023/01/22 09:34:19;;;;;;;16.70;12.45;;;;;;;4.93;59.27;103167.94;6180547;23;20017;-67
2023/01/22 09:36:45;;;;;;;14.77;12.13;;;;;;;4.93;59.31;103174.16;6181356;23;20100;-68
2023/01/22 09:39:12;;;;;;;14.10;12.05;;;;;;;4.95;59.29;103171.47;6180078;22;20025;-68
2023/01/22 09:41:47;;;;;;;16.08;12.80;;;;;;;4.95;59.04;103172.34;6180358;23;20034;-67
2023/01/22 09:44:36;;;;;;;;;;;;;;;4.96;59.23;103174.13;6181532;23;20025;-67
2023/01/22 09:47:15;;;;;;;14.68;10.98;;;;;;;4.98;59.12;103174.09;6181234;23;20247;-67
2023/01/22 09:50:03;;;;;;;17.67;12.90;;;;;;;4.97;59.33;103175.88;6181071;23;20021;-68
2023/01/22 09:52:33;;;;;;;16.95;12.23;;;;;;;4.97;59.21;103186.53;6182496;23;20096;-67
2023/01/22 09:55:00;;;;;;;16.17;12.18;;;;;;;4.96;59.07;103187.44;6182305;22;20109;-67
2023/01/22 09:57:27;;;;;;;17.88;12.45;;;;;;;4.98;59.18;103190.09;6182160;23;20100;-67
2023/01/22 09:59:58;;;;;;;15.73;12.02;;;;;;;4.97;59.01;103188.31;6182736;23;20359;-67
2023/01/22 10:02:37;;;;;;;16.15;12.30;;;;;;;4.97;59.21;103196.31;6182076;23;20062;-67
2023/01/22 10:05:26;;;;;;;19.80;13.00;;;;;;;4.99;59.27;103197.19;6182714;23;20013;-67
2023/01/22 10:07:59;;;;;;;14.85;11.93;;;;;;;5.01;59.19;103195.38;6190610;23;20021;-66
2023/01/22 10:10:27;;;;;;;14.65;12.02;;;;;;;5.02;59.13;103194.47;6182388;23;20020;-65
2023/01/22 10:12:59;;;;;;;16.67;13.05;;;;;;;5.03;59.20;103201.56;6181927;23;20017;-66
2023/01/22 10:15:26;;;;;;;12.52;11.23;;;;;;;5.03;59.08;103189.13;6181968;22;20025;-67
2023/01/22 10:17:54;;;;;;;13.98;12.13;;;;;;;5.03;59.14;103186.47;6182265;23;20097;-67
2023/01/22 10:20:23;;;;;;;16.33;12.85;;;;;;;5.04;59.20;103190.91;6181361;23;20039;-67
2023/01/22 10:22:54;;;;;;;13.85;11.48;;;;;;;5.05;59.15;103192.66;6182121;23;20400;-67
2023/01/22 10:25:21;;;;;;;15.63;11.98;;;;;;;5.07;59.11;103196.19;6182005;23;20027;-67
2023/01/22 10:27:56;;;;;;;14.35;11.77;;;;;;;5.09;59.14;103197.06;6182349;23;20013;-67
2023/01/22 10:30:24;;;;;;;13.75;12.05;;;;;;;5.10;59.14;103208.59;6182036;23;20048;-67
2023/01/22 10:33:03;;;;;;;15.57;12.23;;;;;;;5.10;59.06;103193.50;6155497;23;20411;-67
2023/01/22 10:35:31;;;;;;;15.60;11.82;;;;;;;5.13;59.11;103194.38;6181993;23;20039;-67
2023/01/22 10:37:58;;;;;;;16.75;11.32;;;;;;;5.15;59.11;103195.22;6181807;23;20017;-66
2023/01/22 10:40:32;;;;;;;15.48;12.05;;;;;;;5.17;59.31;103193.44;6181105;23;20017;-68
2023/01/22 10:43:13;;;;;;;15.27;11.60;;;;;;;5.20;59.00;103188.06;6182313;23;20017;-66
2023/01/22 10:46:04;;;;;;;13.00;11.30;;;;;;;5.22;59.06;103188.97;6181794;23;20017;-67
2023/01/22 10:48:32;;;;;;;15.73;12.15;;;;;;;5.26;59.06;103188.03;6182030;23;20021;-66
2023/01/22 10:51:12;;;;;;;15.05;12.00;;;;;;;5.28;58.89;103194.22;6181743;23;20051;-66
2023/01/22 10:53:47;;;;;;;17.67;11.98;;;;;;;5.29;59.11;103193.31;6181706;23;20017;-66
2023/01/22 10:56:26;;;;;;;13.80;11.30;;;;;;;5.30;59.01;103187.97;6181785;23;20016;-67
2023/01/22 10:58:54;;;;;;;13.60;10.85;;;;;;;5.32;59.03;103185.28;6181718;23;20103;-67
2023/01/22 11:01:35;;;;;;;15.43;11.95;;;;;;;5.34;58.99;103175.50;6181585;23;20023;-67
2023/01/22 11:04:25;;;;;;;12.38;11.02;;;;;;;5.33;59.11;103179.06;6182103;23;20020;-67
2023/01/22 11:07:13;;;;;;;13.23;10.52;;;;;;;5.35;59.09;103178.16;6185435;23;20021;-67
2023/01/22 11:09:41;;;;;;;13.20;10.75;;;;;;;5.36;59.00;103179.03;6181743;23;20021;-67
2023/01/22 11:12:28;;;;;;;12.40;10.90;;;;;;;5.35;59.05;103175.47;6181498;23;20383;-66
2023/01/22 11:15:11;;;;;;;12.95;10.45;;;;;;;5.36;58.95;103177.25;6181977;23;20021;-67
2023/01/22 11:17:44;;;;;;;14.35;11.45;;;;;;;5.39;59.07;103176.31;6181956;23;20534;-66
2023/01/22 11:20:27;;;;;;;19.45;11.35;;;;;;;5.40;59.02;103164.75;6181739;23;20462;-66
2023/01/22 11:23:16;;;;;;;12.75;11.00;;;;;;;5.43;58.96;103170.06;6181476;23;20450;-68
2023/01/22 11:26:02;;;;;;;14.30;10.93;;;;;;;5.46;58.97;103166.47;6155909;23;20066;-67
2023/01/22 11:28:49;;;;;;;13.98;11.25;;;;;;;5.49;59.02;103161.09;6181898;23;20020;-68
2023/01/22 11:31:31;;;;;;;11.77;10.38;;;;;;;5.50;58.94;103165.53;6181533;23;20017;-68
2023/01/22 11:34:10;;;;;;;14.05;11.18;;;;;;;5.51;59.04;103161.97;6182098;23;20062;-68
2023/01/22 11:36:47;;;;;;;15.70;11.38;;;;;;;5.52;58.89;103169.94;6181885;23;20016;-67
2023/01/22 11:39:20;;;;;;;13.45;11.23;;;;;;;5.53;58.88;103168.16;6181719;23;20025;-67